sensor_id;sensor_type;location;lat;lon;timestamp;P1;durP1;ratioP1;P2;durP2;ratioP2
42332;SDS011;27984;51.476;5.702;2024-02-26T00:00:37;7.80;;;3.53;;
42332;SDS011;27984;51.476;5.702;2024-02-26T00:03:03;6.07;;;3.95;;
42332;SDS011;27984;51.476;5.702;2024-02-26T00:05:29;5.10;;;3.38;;
42332;SDS011;27984;51.476;5.702;2024-02-26T00:07:56;5.95;;;3.45;;
42332;SDS011;27984;51.476;5.702;2024-02-26T00:10:22;5.45;;;3.30;;
42332;SDS011;27984;51.476;5.702;2024-02-26T00:12:49;6.43;;;3.65;;
42332;SDS011;27984;51.476;5.702;2024-02-26T00:15:15;9.68;;;3.80;;
42332;SDS011;27984;51.476;5.702;2024-02-26T00:17:41;7.97;;;3.92;;
42332;SDS011;27984;51.476;5.702;2024-02-26T00:20:07;5.55;;;3.60;;
42332;SDS011;27984;51.476;5.702;2024-02-26T00:22:33;6.57;;;3.58;;
42332;SDS011;27984;51.476;5.702;2024-02-26T00:24:59;7.38;;;3.78;;
42332;SDS011;27984;51.476;5.702;2024-02-26T00:27:25;6.78;;;3.85;;
42332;SDS011;27984;51.476;5.702;2024-02-26T00:29:51;7.28;;;3.88;;
42332;SDS011;27984;51.476;5.702;2024-02-26T00:32:17;7.07;;;3.80;;
42332;SDS011;27984;51.476;5.702;2024-02-26T00:34:43;5.22;;;3.47;;
42332;SDS011;27984;51.476;5.702;2024-02-26T00:37:09;8.38;;;3.78;;
42332;SDS011;27984;51.476;5.702;2024-02-26T00:39:35;5.78;;;3.60;;
42332;SDS011;27984;51.476;5.702;2024-02-26T00:42:01;7.18;;;3.30;;
42332;SDS011;27984;51.476;5.702;2024-02-26T00:44:27;4.88;;;3.40;;
42332;SDS011;27984;51.476;5.702;2024-02-26T00:46:53;8.68;;;3.60;;
42332;SDS011;27984;51.476;5.702;2024-02-26T00:49:20;5.20;;;3.55;;
42332;SDS011;27984;51.476;5.702;2024-02-26T00:51:46;5.85;;;3.78;;
42332;SDS011;27984;51.476;5.702;2024-02-26T00:54:12;7.95;;;3.45;;
42332;SDS011;27984;51.476;5.702;2024-02-26T00:56:38;10.35;;;3.75;;
42332;SDS011;27984;51.476;5.702;2024-02-26T00:59:04;7.65;;;3.47;;
42332;SDS011;27984;51.476;5.702;2024-02-26T01:01:30;8.50;;;3.53;;
42332;SDS011;27984;51.476;5.702;2024-02-26T01:03:56;6.63;;;3.33;;
42332;SDS011;27984;51.476;5.702;2024-02-26T01:06:22;4.68;;;2.83;;
42332;SDS011;27984;51.476;5.702;2024-02-26T01:08:47;4.88;;;3.50;;
42332;SDS011;27984;51.476;5.702;2024-02-26T01:11:14;6.50;;;2.90;;
42332;SDS011;27984;51.476;5.702;2024-02-26T01:13:40;4.47;;;3.20;;
42332;SDS011;27984;51.476;5.702;2024-02-26T01:16:06;3.83;;;3.05;;
42332;SDS011;27984;51.476;5.702;2024-02-26T01:18:32;5.35;;;3.00;;
42332;SDS011;27984;51.476;5.702;2024-02-26T01:20:58;6.57;;;3.28;;
42332;SDS011;27984;51.476;5.702;2024-02-26T01:23:24;5.35;;;3.28;;
42332;SDS011;27984;51.476;5.702;2024-02-26T01:25:50;6.55;;;3.40;;
42332;SDS011;27984;51.476;5.702;2024-02-26T01:28:16;8.45;;;3.35;;
42332;SDS011;27984;51.476;5.702;2024-02-26T01:30:42;6.10;;;3.70;;
42332;SDS011;27984;51.476;5.702;2024-02-26T01:33:08;6.47;;;2.97;;
42332;SDS011;27984;51.476;5.702;2024-02-26T01:35:34;6.35;;;3.45;;
42332;SDS011;27984;51.476;5.702;2024-02-26T01:38:01;5.43;;;3.90;;
42332;SDS011;27984;51.476;5.702;2024-02-26T01:40:27;5.78;;;3.42;;
42332;SDS011;27984;51.476;5.702;2024-02-26T01:42:53;6.85;;;3.50;;
42332;SDS011;27984;51.476;5.702;2024-02-26T01:45:19;4.07;;;3.30;;
42332;SDS011;27984;51.476;5.702;2024-02-26T01:47:50;5.00;;;3.47;;
42332;SDS011;27984;51.476;5.702;2024-02-26T01:50:16;8.80;;;3.65;;
42332;SDS011;27984;51.476;5.702;2024-02-26T01:52:43;4.60;;;3.92;;
42332;SDS011;27984;51.476;5.702;2024-02-26T01:55:09;5.57;;;3.47;;
42332;SDS011;27984;51.476;5.702;2024-02-26T01:57:35;5.95;;;3.58;;
42332;SDS011;27984;51.476;5.702;2024-02-26T02:00:01;5.05;;;3.63;;
42332;SDS011;27984;51.476;5.702;2024-02-26T02:02:30;5.97;;;3.65;;
42332;SDS011;27984;51.476;5.702;2024-02-26T02:04:57;6.15;;;4.00;;
42332;SDS011;27984;51.476;5.702;2024-02-26T02:07:22;5.80;;;3.47;;
42332;SDS011;27984;51.476;5.702;2024-02-26T02:09:49;4.07;;;3.55;;
42332;SDS011;27984;51.476;5.702;2024-02-26T02:12:15;5.90;;;3.90;;
42332;SDS011;27984;51.476;5.702;2024-02-26T02:14:41;4.65;;;3.97;;
42332;SDS011;27984;51.476;5.702;2024-02-26T02:17:07;6.50;;;3.75;;
42332;SDS011;27984;51.476;5.702;2024-02-26T02:19:33;5.18;;;4.13;;
42332;SDS011;27984;51.476;5.702;2024-02-26T02:21:59;5.40;;;3.65;;
42332;SDS011;27984;51.476;5.702;2024-02-26T02:24:25;6.25;;;4.00;;
42332;SDS011;27984;51.476;5.702;2024-02-26T02:26:51;6.95;;;4.15;;
42332;SDS011;27984;51.476;5.702;2024-02-26T02:29:17;5.97;;;4.05;;
42332;SDS011;27984;51.476;5.702;2024-02-26T02:31:43;5.55;;;3.95;;
42332;SDS011;27984;51.476;5.702;2024-02-26T02:34:09;5.32;;;4.18;;
42332;SDS011;27984;51.476;5.702;2024-02-26T02:36:35;6.85;;;4.22;;
42332;SDS011;27984;51.476;5.702;2024-02-26T02:39:01;6.00;;;4.60;;
42332;SDS011;27984;51.476;5.702;2024-02-26T02:41:28;6.15;;;4.38;;
42332;SDS011;27984;51.476;5.702;2024-02-26T02:43:55;6.63;;;4.75;;
42332;SDS011;27984;51.476;5.702;2024-02-26T02:46:21;5.53;;;4.30;;
42332;SDS011;27984;51.476;5.702;2024-02-26T02:48:47;6.10;;;4.30;;
42332;SDS011;27984;51.476;5.702;2024-02-26T02:51:13;5.65;;;4.20;;
42332;SDS011;27984;51.476;5.702;2024-02-26T02:53:39;6.13;;;4.35;;
42332;SDS011;27984;51.476;5.702;2024-02-26T02:56:05;5.20;;;4.15;;
42332;SDS011;27984;51.476;5.702;2024-02-26T02:58:31;6.10;;;4.55;;
42332;SDS011;27984;51.476;5.702;2024-02-26T03:00:57;6.00;;;4.55;;
42332;SDS011;27984;51.476;5.702;2024-02-26T03:03:25;5.35;;;4.32;;
42332;SDS011;27984;51.476;5.702;2024-02-26T03:05:53;6.53;;;4.10;;
42332;SDS011;27984;51.476;5.702;2024-02-26T03:08:19;4.65;;;4.20;;
42332;SDS011;27984;51.476;5.702;2024-02-26T03:10:45;5.70;;;4.45;;
42332;SDS011;27984;51.476;5.702;2024-02-26T03:13:11;5.97;;;4.13;;
42332;SDS011;27984;51.476;5.702;2024-02-26T03:15:37;4.65;;;3.88;;
42332;SDS011;27984;51.476;5.702;2024-02-26T03:18:03;5.93;;;4.00;;
42332;SDS011;27984;51.476;5.702;2024-02-26T03:20:29;4.93;;;3.80;;
42332;SDS011;27984;51.476;5.702;2024-02-26T03:22:55;6.53;;;4.43;;
42332;SDS011;27984;51.476;5.702;2024-02-26T03:25:21;6.45;;;3.97;;
42332;SDS011;27984;51.476;5.702;2024-02-26T03:27:47;4.45;;;3.90;;
42332;SDS011;27984;51.476;5.702;2024-02-26T03:30:13;5.10;;;4.05;;
42332;SDS011;27984;51.476;5.702;2024-02-26T03:32:39;4.43;;;3.95;;
42332;SDS011;27984;51.476;5.702;2024-02-26T03:35:05;4.53;;;3.90;;
42332;SDS011;27984;51.476;5.702;2024-02-26T03:37:32;5.68;;;4.20;;
42332;SDS011;27984;51.476;5.702;2024-02-26T03:39:58;4.72;;;3.80;;
42332;SDS011;27984;51.476;5.702;2024-02-26T03:42:26;5.82;;;3.85;;
42332;SDS011;27984;51.476;5.702;2024-02-26T03:44:52;5.63;;;4.05;;
42332;SDS011;27984;51.476;5.702;2024-02-26T03:47:18;6.38;;;3.67;;
42332;SDS011;27984;51.476;5.702;2024-02-26T03:49:44;5.43;;;4.00;;
42332;SDS011;27984;51.476;5.702;2024-02-26T03:52:10;5.63;;;3.95;;
42332;SDS011;27984;51.476;5.702;2024-02-26T03:54:36;6.97;;;4.05;;
42332;SDS011;27984;51.476;5.702;2024-02-26T03:57:02;6.53;;;4.53;;
42332;SDS011;27984;51.476;5.702;2024-02-26T03:59:28;5.25;;;4.07;;
42332;SDS011;27984;51.476;5.702;2024-02-26T04:01:53;5.78;;;4.28;;
42332;SDS011;27984;51.476;5.702;2024-02-26T04:04:19;6.00;;;4.72;;
42332;SDS011;27984;51.476;5.702;2024-02-26T04:06:46;6.00;;;4.30;;
42332;SDS011;27984;51.476;5.702;2024-02-26T04:09:15;5.70;;;4.30;;
42332;SDS011;27984;51.476;5.702;2024-02-26T04:11:41;4.70;;;4.18;;
42332;SDS011;27984;51.476;5.702;2024-02-26T04:14:10;6.47;;;4.72;;
42332;SDS011;27984;51.476;5.702;2024-02-26T04:16:37;9.20;;;4.60;;
42332;SDS011;27984;51.476;5.702;2024-02-26T04:19:03;4.78;;;4.28;;
42332;SDS011;27984;51.476;5.702;2024-02-26T04:21:29;5.97;;;4.72;;
42332;SDS011;27984;51.476;5.702;2024-02-26T04:23:55;5.35;;;4.45;;
42332;SDS011;27984;51.476;5.702;2024-02-26T04:26:21;7.80;;;5.15;;
42332;SDS011;27984;51.476;5.702;2024-02-26T04:28:47;5.97;;;5.15;;
42332;SDS011;27984;51.476;5.702;2024-02-26T04:31:13;5.80;;;5.22;;
42332;SDS011;27984;51.476;5.702;2024-02-26T04:33:39;5.80;;;5.07;;
42332;SDS011;27984;51.476;5.702;2024-02-26T04:36:11;6.18;;;5.05;;
42332;SDS011;27984;51.476;5.702;2024-02-26T04:38:37;6.28;;;5.03;;
42332;SDS011;27984;51.476;5.702;2024-02-26T04:41:03;5.70;;;5.15;;
42332;SDS011;27984;51.476;5.702;2024-02-26T04:43:29;6.38;;;5.40;;
42332;SDS011;27984;51.476;5.702;2024-02-26T04:45:55;6.20;;;5.05;;
42332;SDS011;27984;51.476;5.702;2024-02-26T04:48:22;9.40;;;5.82;;
42332;SDS011;27984;51.476;5.702;2024-02-26T04:50:48;6.72;;;5.40;;
42332;SDS011;27984;51.476;5.702;2024-02-26T04:53:14;8.82;;;5.70;;
42332;SDS011;27984;51.476;5.702;2024-02-26T04:55:40;6.07;;;5.47;;
42332;SDS011;27984;51.476;5.702;2024-02-26T04:58:06;6.70;;;5.72;;
42332;SDS011;27984;51.476;5.702;2024-02-26T05:00:32;8.25;;;5.78;;
42332;SDS011;27984;51.476;5.702;2024-02-26T05:02:57;6.85;;;6.07;;
42332;SDS011;27984;51.476;5.702;2024-02-26T05:05:23;7.05;;;6.00;;
42332;SDS011;27984;51.476;5.702;2024-02-26T05:07:49;7.72;;;5.80;;
42332;SDS011;27984;51.476;5.702;2024-02-26T05:10:15;8.52;;;6.28;;
42332;SDS011;27984;51.476;5.702;2024-02-26T05:12:41;9.15;;;6.18;;
42332;SDS011;27984;51.476;5.702;2024-02-26T05:15:08;6.75;;;5.97;;
42332;SDS011;27984;51.476;5.702;2024-02-26T05:17:34;8.00;;;5.47;;
42332;SDS011;27984;51.476;5.702;2024-02-26T05:20:00;6.35;;;5.28;;
42332;SDS011;27984;51.476;5.702;2024-02-26T05:22:26;6.10;;;5.47;;
42332;SDS011;27984;51.476;5.702;2024-02-26T05:24:52;7.22;;;5.35;;
42332;SDS011;27984;51.476;5.702;2024-02-26T05:27:18;6.32;;;5.40;;
42332;SDS011;27984;51.476;5.702;2024-02-26T05:29:44;8.32;;;5.30;;
42332;SDS011;27984;51.476;5.702;2024-02-26T05:32:10;6.75;;;5.38;;
42332;SDS011;27984;51.476;5.702;2024-02-26T05:34:36;6.38;;;5.57;;
42332;SDS011;27984;51.476;5.702;2024-02-26T05:37:02;8.13;;;6.07;;
42332;SDS011;27984;51.476;5.702;2024-02-26T05:39:28;7.03;;;5.82;;
42332;SDS011;27984;51.476;5.702;2024-02-26T05:41:54;6.72;;;5.40;;
42332;SDS011;27984;51.476;5.702;2024-02-26T05:44:22;7.00;;;5.57;;
42332;SDS011;27984;51.476;5.702;2024-02-26T05:46:48;7.05;;;6.03;;
42332;SDS011;27984;51.476;5.702;2024-02-26T05:49:14;7.03;;;5.43;;
42332;SDS011;27984;51.476;5.702;2024-02-26T05:51:40;6.03;;;5.32;;
42332;SDS011;27984;51.476;5.702;2024-02-26T05:54:06;6.07;;;5.30;;
42332;SDS011;27984;51.476;5.702;2024-02-26T05:56:33;6.63;;;5.13;;
42332;SDS011;27984;51.476;5.702;2024-02-26T05:58:59;7.78;;;5.75;;
42332;SDS011;27984;51.476;5.702;2024-02-26T06:01:25;6.00;;;5.20;;
42332;SDS011;27984;51.476;5.702;2024-02-26T06:03:51;6.22;;;5.10;;
42332;SDS011;27984;51.476;5.702;2024-02-26T06:06:17;6.07;;;5.22;;
42332;SDS011;27984;51.476;5.702;2024-02-26T06:08:43;5.75;;;5.15;;
42332;SDS011;27984;51.476;5.702;2024-02-26T06:11:09;7.85;;;5.47;;
42332;SDS011;27984;51.476;5.702;2024-02-26T06:13:35;6.10;;;5.50;;
42332;SDS011;27984;51.476;5.702;2024-02-26T06:16:01;6.32;;;5.47;;
42332;SDS011;27984;51.476;5.702;2024-02-26T06:18:27;6.97;;;5.20;;
42332;SDS011;27984;51.476;5.702;2024-02-26T06:20:53;6.38;;;5.28;;
42332;SDS011;27984;51.476;5.702;2024-02-26T06:23:19;7.22;;;6.13;;
42332;SDS011;27984;51.476;5.702;2024-02-26T06:25:45;7.18;;;5.70;;
42332;SDS011;27984;51.476;5.702;2024-02-26T06:28:13;6.05;;;5.18;;
42332;SDS011;27984;51.476;5.702;2024-02-26T06:30:39;6.50;;;5.90;;
42332;SDS011;27984;51.476;5.702;2024-02-26T06:33:04;6.53;;;5.47;;
42332;SDS011;27984;51.476;5.702;2024-02-26T06:35:31;7.78;;;5.32;;
42332;SDS011;27984;51.476;5.702;2024-02-26T06:37:57;6.15;;;5.00;;
42332;SDS011;27984;51.476;5.702;2024-02-26T06:40:23;6.00;;;5.40;;
42332;SDS011;27984;51.476;5.702;2024-02-26T06:42:50;6.18;;;5.57;;
42332;SDS011;27984;51.476;5.702;2024-02-26T06:45:16;6.25;;;5.65;;
42332;SDS011;27984;51.476;5.702;2024-02-26T06:47:44;5.80;;;5.20;;
42332;SDS011;27984;51.476;5.702;2024-02-26T06:50:13;6.55;;;5.57;;
42332;SDS011;27984;51.476;5.702;2024-02-26T06:52:39;7.30;;;5.68;;
42332;SDS011;27984;51.476;5.702;2024-02-26T06:55:05;8.20;;;6.00;;
42332;SDS011;27984;51.476;5.702;2024-02-26T06:57:33;7.00;;;6.20;;
42332;SDS011;27984;51.476;5.702;2024-02-26T06:59:59;7.68;;;6.22;;
42332;SDS011;27984;51.476;5.702;2024-02-26T07:02:25;7.00;;;6.10;;
42332;SDS011;27984;51.476;5.702;2024-02-26T07:04:51;7.85;;;6.75;;
42332;SDS011;27984;51.476;5.702;2024-02-26T07:07:17;9.93;;;6.55;;
42332;SDS011;27984;51.476;5.702;2024-02-26T07:09:43;7.85;;;6.75;;
42332;SDS011;27984;51.476;5.702;2024-02-26T07:12:09;9.57;;;7.15;;
42332;SDS011;27984;51.476;5.702;2024-02-26T07:14:35;8.48;;;7.32;;
42332;SDS011;27984;51.476;5.702;2024-02-26T07:17:02;8.93;;;7.32;;
42332;SDS011;27984;51.476;5.702;2024-02-26T07:19:28;9.38;;;7.80;;
42332;SDS011;27984;51.476;5.702;2024-02-26T07:21:54;8.20;;;7.20;;
42332;SDS011;27984;51.476;5.702;2024-02-26T07:24:20;9.23;;;7.45;;
42332;SDS011;27984;51.476;5.702;2024-02-26T07:26:46;8.60;;;7.70;;
42332;SDS011;27984;51.476;5.702;2024-02-26T07:29:12;13.27;;;8.32;;
42332;SDS011;27984;51.476;5.702;2024-02-26T07:31:38;9.68;;;8.18;;
42332;SDS011;27984;51.476;5.702;2024-02-26T07:34:04;10.80;;;8.65;;
42332;SDS011;27984;51.476;5.702;2024-02-26T07:36:30;8.52;;;7.60;;
42332;SDS011;27984;51.476;5.702;2024-02-26T07:38:56;10.18;;;8.05;;
42332;SDS011;27984;51.476;5.702;2024-02-26T07:41:22;8.85;;;7.95;;
42332;SDS011;27984;51.476;5.702;2024-02-26T07:43:48;12.05;;;8.80;;
42332;SDS011;27984;51.476;5.702;2024-02-26T07:46:14;10.73;;;8.20;;
42332;SDS011;27984;51.476;5.702;2024-02-26T07:48:40;10.55;;;8.85;;
42332;SDS011;27984;51.476;5.702;2024-02-26T07:51:06;8.52;;;7.63;;
42332;SDS011;27984;51.476;5.702;2024-02-26T07:53:32;9.82;;;7.43;;
42332;SDS011;27984;51.476;5.702;2024-02-26T07:55:58;8.90;;;8.00;;
42332;SDS011;27984;51.476;5.702;2024-02-26T07:58:24;9.43;;;8.13;;
42332;SDS011;27984;51.476;5.702;2024-02-26T08:00:50;8.65;;;7.75;;
42332;SDS011;27984;51.476;5.702;2024-02-26T08:03:16;9.48;;;7.90;;
42332;SDS011;27984;51.476;5.702;2024-02-26T08:05:42;8.98;;;7.57;;
42332;SDS011;27984;51.476;5.702;2024-02-26T08:08:08;7.15;;;6.45;;
42332;SDS011;27984;51.476;5.702;2024-02-26T08:10:34;7.45;;;6.32;;
42332;SDS011;27984;51.476;5.702;2024-02-26T08:13:00;7.28;;;6.30;;
42332;SDS011;27984;51.476;5.702;2024-02-26T08:15:32;6.90;;;6.20;;
42332;SDS011;27984;51.476;5.702;2024-02-26T08:17:59;6.18;;;5.50;;
42332;SDS011;27984;51.476;5.702;2024-02-26T08:20:27;6.47;;;5.78;;
42332;SDS011;27984;51.476;5.702;2024-02-26T08:22:53;7.60;;;5.80;;
42332;SDS011;27984;51.476;5.702;2024-02-26T08:25:19;7.72;;;6.20;;
42332;SDS011;27984;51.476;5.702;2024-02-26T08:27:45;10.65;;;6.45;;
42332;SDS011;27984;51.476;5.702;2024-02-26T08:30:12;8.30;;;5.80;;
42332;SDS011;27984;51.476;5.702;2024-02-26T08:32:41;9.52;;;6.57;;
42332;SDS011;27984;51.476;5.702;2024-02-26T08:35:07;7.90;;;6.45;;
42332;SDS011;27984;51.476;5.702;2024-02-26T08:37:33;9.90;;;6.70;;
42332;SDS011;27984;51.476;5.702;2024-02-26T08:39:59;8.98;;;6.50;;
42332;SDS011;27984;51.476;5.702;2024-02-26T08:42:25;8.95;;;6.50;;
42332;SDS011;27984;51.476;5.702;2024-02-26T08:44:51;7.60;;;6.30;;
42332;SDS011;27984;51.476;5.702;2024-02-26T08:47:19;8.02;;;7.00;;
42332;SDS011;27984;51.476;5.702;2024-02-26T08:49:45;8.05;;;7.10;;
42332;SDS011;27984;51.476;5.702;2024-02-26T08:52:11;8.68;;;7.20;;
42332;SDS011;27984;51.476;5.702;2024-02-26T08:54:38;9.98;;;7.53;;
42332;SDS011;27984;51.476;5.702;2024-02-26T08:57:05;9.90;;;7.53;;
42332;SDS011;27984;51.476;5.702;2024-02-26T08:59:31;10.18;;;8.25;;
42332;SDS011;27984;51.476;5.702;2024-02-26T09:01:57;10.52;;;7.80;;
42332;SDS011;27984;51.476;5.702;2024-02-26T09:04:23;10.15;;;8.25;;
42332;SDS011;27984;51.476;5.702;2024-02-26T09:06:49;9.90;;;7.75;;
42332;SDS011;27984;51.476;5.702;2024-02-26T09:09:15;10.75;;;8.10;;
42332;SDS011;27984;51.476;5.702;2024-02-26T09:11:41;10.10;;;8.05;;
42332;SDS011;27984;51.476;5.702;2024-02-26T09:14:07;9.48;;;8.45;;
42332;SDS011;27984;51.476;5.702;2024-02-26T09:16:33;10.23;;;8.52;;
42332;SDS011;27984;51.476;5.702;2024-02-26T09:18:59;9.65;;;8.60;;
42332;SDS011;27984;51.476;5.702;2024-02-26T09:21:25;9.32;;;8.43;;
42332;SDS011;27984;51.476;5.702;2024-02-26T09:23:51;9.88;;;8.23;;
42332;SDS011;27984;51.476;5.702;2024-02-26T09:26:18;12.88;;;9.15;;
42332;SDS011;27984;51.476;5.702;2024-02-26T09:28:44;10.73;;;9.23;;
42332;SDS011;27984;51.476;5.702;2024-02-26T09:31:10;9.52;;;8.52;;
42332;SDS011;27984;51.476;5.702;2024-02-26T09:33:36;11.35;;;8.35;;
42332;SDS011;27984;51.476;5.702;2024-02-26T09:36:03;9.57;;;8.57;;
42332;SDS011;27984;51.476;5.702;2024-02-26T09:38:29;11.15;;;8.82;;
42332;SDS011;27984;51.476;5.702;2024-02-26T09:40:58;11.32;;;8.75;;
42332;SDS011;27984;51.476;5.702;2024-02-26T09:43:24;10.55;;;8.35;;
42332;SDS011;27984;51.476;5.702;2024-02-26T09:45:54;10.95;;;8.95;;
42332;SDS011;27984;51.476;5.702;2024-02-26T09:48:20;10.98;;;9.15;;
42332;SDS011;27984;51.476;5.702;2024-02-26T09:50:48;10.57;;;9.40;;
42332;SDS011;27984;51.476;5.702;2024-02-26T09:53:14;12.32;;;9.13;;
42332;SDS011;27984;51.476;5.702;2024-02-26T09:55:40;14.40;;;9.13;;
42332;SDS011;27984;51.476;5.702;2024-02-26T09:58:06;11.18;;;9.95;;
42332;SDS011;27984;51.476;5.702;2024-02-26T10:00:32;15.35;;;9.57;;
42332;SDS011;27984;51.476;5.702;2024-02-26T10:03:03;10.70;;;9.07;;
42332;SDS011;27984;51.476;5.702;2024-02-26T10:05:29;11.15;;;9.50;;
42332;SDS011;27984;51.476;5.702;2024-02-26T10:07:57;10.82;;;9.65;;
42332;SDS011;27984;51.476;5.702;2024-02-26T10:10:26;11.95;;;9.25;;
42332;SDS011;27984;51.476;5.702;2024-02-26T10:12:52;13.25;;;9.43;;
42332;SDS011;27984;51.476;5.702;2024-02-26T10:15:18;10.45;;;9.43;;
42332;SDS011;27984;51.476;5.702;2024-02-26T10:17:44;10.35;;;9.00;;
42332;SDS011;27984;51.476;5.702;2024-02-26T10:20:14;12.32;;;9.88;;
42332;SDS011;27984;51.476;5.702;2024-02-26T10:22:41;12.25;;;9.13;;
42332;SDS011;27984;51.476;5.702;2024-02-26T10:25:07;11.60;;;9.15;;
42332;SDS011;27984;51.476;5.702;2024-02-26T10:27:34;13.13;;;9.73;;
42332;SDS011;27984;51.476;5.702;2024-02-26T10:30:22;13.23;;;9.75;;
42332;SDS011;27984;51.476;5.702;2024-02-26T10:32:50;12.45;;;9.25;;
42332;SDS011;27984;51.476;5.702;2024-02-26T10:35:17;12.23;;;8.80;;
42332;SDS011;27984;51.476;5.702;2024-02-26T10:37:43;13.77;;;9.65;;
42332;SDS011;27984;51.476;5.702;2024-02-26T10:40:13;11.57;;;9.43;;
42332;SDS011;27984;51.476;5.702;2024-02-26T10:42:39;11.40;;;8.48;;
42332;SDS011;27984;51.476;5.702;2024-02-26T10:45:06;11.65;;;9.43;;
42332;SDS011;27984;51.476;5.702;2024-02-26T10:47:34;13.65;;;9.68;;
42332;SDS011;27984;51.476;5.702;2024-02-26T10:50:01;13.63;;;9.43;;
42332;SDS011;27984;51.476;5.702;2024-02-26T10:52:27;11.63;;;9.48;;
42332;SDS011;27984;51.476;5.702;2024-02-26T10:54:56;11.00;;;9.32;;
42332;SDS011;27984;51.476;5.702;2024-02-26T10:57:22;11.75;;;9.82;;
42332;SDS011;27984;51.476;5.702;2024-02-26T10:59:51;12.82;;;9.65;;
42332;SDS011;27984;51.476;5.702;2024-02-26T11:02:17;12.63;;;9.48;;
42332;SDS011;27984;51.476;5.702;2024-02-26T11:04:43;15.00;;;10.52;;
42332;SDS011;27984;51.476;5.702;2024-02-26T11:07:10;15.02;;;10.93;;
42332;SDS011;27984;51.476;5.702;2024-02-26T11:09:36;18.48;;;10.77;;
42332;SDS011;27984;51.476;5.702;2024-02-26T11:12:08;13.15;;;10.75;;
42332;SDS011;27984;51.476;5.702;2024-02-26T11:14:37;14.30;;;11.52;;
42332;SDS011;27984;51.476;5.702;2024-02-26T11:17:04;14.13;;;11.25;;
42332;SDS011;27984;51.476;5.702;2024-02-26T11:19:31;15.82;;;11.82;;
42332;SDS011;27984;51.476;5.702;2024-02-26T11:21:59;14.88;;;12.32;;
42332;SDS011;27984;51.476;5.702;2024-02-26T11:24:26;16.83;;;12.45;;
42332;SDS011;27984;51.476;5.702;2024-02-26T11:26:56;15.18;;;12.38;;
42332;SDS011;27984;51.476;5.702;2024-02-26T11:29:28;16.48;;;12.57;;
42332;SDS011;27984;51.476;5.702;2024-02-26T11:31:55;18.75;;;13.57;;
42332;SDS011;27984;51.476;5.702;2024-02-26T11:34:21;17.38;;;12.80;;
42332;SDS011;27984;51.476;5.702;2024-02-26T11:36:48;17.05;;;13.35;;
42332;SDS011;27984;51.476;5.702;2024-02-26T11:39:14;17.05;;;13.50;;
42332;SDS011;27984;51.476;5.702;2024-02-26T11:41:41;17.35;;;13.88;;
42332;SDS011;27984;51.476;5.702;2024-02-26T11:44:07;19.58;;;13.88;;
42332;SDS011;27984;51.476;5.702;2024-02-26T11:46:40;17.42;;;14.15;;
42332;SDS011;27984;51.476;5.702;2024-02-26T11:51:56;20.63;;;15.53;;
42332;SDS011;27984;51.476;5.702;2024-02-26T11:57:04;19.60;;;15.23;;
42332;SDS011;27984;51.476;5.702;2024-02-26T11:59:39;23.95;;;15.90;;
42332;SDS011;27984;51.476;5.702;2024-02-26T12:02:06;22.05;;;16.08;;
42332;SDS011;27984;51.476;5.702;2024-02-26T12:04:33;22.77;;;15.32;;
42332;SDS011;27984;51.476;5.702;2024-02-26T12:07:01;22.08;;;15.48;;
42332;SDS011;27984;51.476;5.702;2024-02-26T12:09:45;22.15;;;15.88;;
42332;SDS011;27984;51.476;5.702;2024-02-26T12:12:13;23.05;;;15.75;;
42332;SDS011;27984;51.476;5.702;2024-02-26T12:14:52;21.42;;;14.95;;
42332;SDS011;27984;51.476;5.702;2024-02-26T12:17:22;23.00;;;15.05;;
42332;SDS011;27984;51.476;5.702;2024-02-26T12:19:48;21.95;;;15.25;;
42332;SDS011;27984;51.476;5.702;2024-02-26T12:22:15;22.77;;;15.60;;
42332;SDS011;27984;51.476;5.702;2024-02-26T12:24:42;27.27;;;17.13;;
42332;SDS011;27984;51.476;5.702;2024-02-26T12:27:08;24.05;;;15.88;;
42332;SDS011;27984;51.476;5.702;2024-02-26T12:29:34;24.50;;;16.67;;
42332;SDS011;27984;51.476;5.702;2024-02-26T12:32:00;26.30;;;16.63;;
42332;SDS011;27984;51.476;5.702;2024-02-26T12:34:26;27.73;;;16.15;;
42332;SDS011;27984;51.476;5.702;2024-02-26T12:36:53;27.05;;;15.27;;
42332;SDS011;27984;51.476;5.702;2024-02-26T12:39:19;25.58;;;16.55;;
42332;SDS011;27984;51.476;5.702;2024-02-26T12:41:46;29.85;;;17.80;;
42332;SDS011;27984;51.476;5.702;2024-02-26T12:44:15;26.50;;;17.73;;
42332;SDS011;27984;51.476;5.702;2024-02-26T12:46:41;28.02;;;16.95;;
42332;SDS011;27984;51.476;5.702;2024-02-26T12:49:07;28.23;;;16.90;;
42332;SDS011;27984;51.476;5.702;2024-02-26T12:51:33;31.45;;;18.90;;
42332;SDS011;27984;51.476;5.702;2024-02-26T12:53:59;28.67;;;17.45;;
42332;SDS011;27984;51.476;5.702;2024-02-26T12:56:26;31.48;;;18.15;;
42332;SDS011;27984;51.476;5.702;2024-02-26T12:58:53;32.00;;;18.67;;
42332;SDS011;27984;51.476;5.702;2024-02-26T13:01:22;32.85;;;19.02;;
42332;SDS011;27984;51.476;5.702;2024-02-26T13:03:49;29.02;;;17.75;;
42332;SDS011;27984;51.476;5.702;2024-02-26T13:06:16;34.10;;;19.92;;
42332;SDS011;27984;51.476;5.702;2024-02-26T13:08:42;33.67;;;20.20;;
42332;SDS011;27984;51.476;5.702;2024-02-26T13:11:08;33.97;;;20.02;;
42332;SDS011;27984;51.476;5.702;2024-02-26T13:13:34;36.25;;;20.00;;
42332;SDS011;27984;51.476;5.702;2024-02-26T13:16:01;34.47;;;20.90;;
42332;SDS011;27984;51.476;5.702;2024-02-26T13:18:28;34.47;;;19.52;;
42332;SDS011;27984;51.476;5.702;2024-02-26T13:21:06;31.77;;;19.50;;
42332;SDS011;27984;51.476;5.702;2024-02-26T13:23:33;36.95;;;20.73;;
42332;SDS011;27984;51.476;5.702;2024-02-26T13:25:59;34.38;;;19.90;;
42332;SDS011;27984;51.476;5.702;2024-02-26T13:28:24;35.38;;;19.65;;
42332;SDS011;27984;51.476;5.702;2024-02-26T13:30:53;34.42;;;20.50;;
42332;SDS011;27984;51.476;5.702;2024-02-26T13:33:23;35.28;;;19.70;;
42332;SDS011;27984;51.476;5.702;2024-02-26T13:35:49;34.08;;;20.25;;
42332;SDS011;27984;51.476;5.702;2024-02-26T13:38:16;32.83;;;19.25;;
42332;SDS011;27984;51.476;5.702;2024-02-26T13:40:42;30.50;;;18.83;;
42332;SDS011;27984;51.476;5.702;2024-02-26T13:43:08;33.35;;;19.55;;
42332;SDS011;27984;51.476;5.702;2024-02-26T13:45:34;32.22;;;18.60;;
42332;SDS011;27984;51.476;5.702;2024-02-26T13:48:04;33.00;;;18.92;;
42332;SDS011;27984;51.476;5.702;2024-02-26T13:50:31;33.15;;;18.85;;
42332;SDS011;27984;51.476;5.702;2024-02-26T13:52:57;33.30;;;17.90;;
42332;SDS011;27984;51.476;5.702;2024-02-26T13:55:24;29.67;;;17.40;;
42332;SDS011;27984;51.476;5.702;2024-02-26T13:57:53;31.65;;;17.90;;
42332;SDS011;27984;51.476;5.702;2024-02-26T14:00:19;28.52;;;17.10;;
42332;SDS011;27984;51.476;5.702;2024-02-26T14:02:45;29.50;;;17.15;;
42332;SDS011;27984;51.476;5.702;2024-02-26T14:05:11;24.98;;;16.35;;
42332;SDS011;27984;51.476;5.702;2024-02-26T14:07:37;27.67;;;15.13;;
42332;SDS011;27984;51.476;5.702;2024-02-26T14:10:03;25.70;;;15.25;;
42332;SDS011;27984;51.476;5.702;2024-02-26T14:12:30;28.20;;;15.85;;
42332;SDS011;27984;51.476;5.702;2024-02-26T14:14:56;24.30;;;14.85;;
42332;SDS011;27984;51.476;5.702;2024-02-26T14:17:24;24.45;;;14.57;;
42332;SDS011;27984;51.476;5.702;2024-02-26T14:19:49;23.35;;;14.35;;
42332;SDS011;27984;51.476;5.702;2024-02-26T14:22:16;21.00;;;13.68;;
42332;SDS011;27984;51.476;5.702;2024-02-26T14:24:42;20.75;;;12.07;;
42332;SDS011;27984;51.476;5.702;2024-02-26T14:27:08;22.35;;;13.10;;
42332;SDS011;27984;51.476;5.702;2024-02-26T14:29:35;20.17;;;13.18;;
42332;SDS011;27984;51.476;5.702;2024-02-26T14:32:02;20.85;;;11.55;;
42332;SDS011;27984;51.476;5.702;2024-02-26T14:34:28;17.83;;;11.52;;
42332;SDS011;27984;51.476;5.702;2024-02-26T14:36:54;20.20;;;12.73;;
42332;SDS011;27984;51.476;5.702;2024-02-26T14:39:20;19.05;;;12.77;;